createdAt,value
2022-08-16T00:00:22.380Z,70.75
2022-08-16T00:01:17.035Z,71.15
2022-08-16T00:02:17.172Z,71.05
2022-08-16T00:03:17.320Z,71.35
2022-08-16T00:04:17.566Z,71.35
2022-08-16T00:05:17.655Z,71.55
2022-08-16T00:06:17.824Z,71.15
2022-08-16T00:07:18.075Z,71.35
2022-08-16T00:08:35.770Z,71.58
2022-08-16T00:09:19.314Z,71.45
2022-08-16T00:10:20.792Z,71.28
2022-08-16T00:11:18.715Z,71.39
2022-08-16T00:12:18.865Z,71.48
2022-08-16T00:13:19.091Z,71.58
2022-08-16T00:14:19.267Z,71.39
2022-08-16T00:15:19.394Z,71.48
2022-08-16T00:17:05.374Z,72.28
2022-08-16T00:17:20.814Z,72.58
2022-08-16T00:18:22.092Z,72.78
2022-08-16T00:19:22.543Z,73.18
2022-08-16T00:20:20.952Z,72.81
2022-08-16T00:21:20.427Z,72.81
2022-08-16T00:22:20.789Z,73.71
2022-08-16T00:23:24.576Z,73.51
2022-08-16T00:24:31.275Z,73.91
2022-08-16T00:26:33.209Z,73.41
2022-08-16T00:26:36.101Z,73.61
2022-08-16T00:27:22.515Z,73.01
2022-08-16T00:28:21.685Z,73.81
2022-08-16T00:29:22.940Z,73.81
2022-08-16T00:30:28.925Z,73.81
2022-08-16T00:31:24.170Z,73.61
2022-08-16T00:32:22.406Z,73.91
2022-08-16T00:33:22.643Z,74.41
2022-08-16T00:34:22.763Z,73.85
2022-08-16T00:35:23.915Z,74.04
2022-08-16T00:36:23.187Z,74.15
2022-08-16T00:37:24.364Z,74.15
2022-08-16T00:38:40.876Z,73.74
2022-08-16T00:39:24.788Z,73.85
2022-08-16T00:40:34.235Z,73.85
2022-08-16T00:41:25.012Z,73.35
2022-08-16T00:42:30.381Z,73.85
2022-08-16T00:43:25.383Z,73.94
2022-08-16T00:44:32.845Z,74.04
2022-08-16T00:45:25.769Z,74.15
2022-08-16T00:46:34.156Z,73.35
2022-08-16T00:47:26.048Z,73.74
2022-08-16T00:48:30.609Z,73.74
2022-08-16T00:49:26.433Z,73.85
2022-08-16T00:50:35.886Z,73.74
2022-08-16T00:51:29.480Z,74.04
2022-08-16T00:52:30.080Z,73.65
2022-08-16T00:53:26.069Z,73.88
2022-08-16T00:54:26.247Z,73.98
2022-08-16T00:55:26.418Z,73.68
2022-08-16T00:56:56.699Z,73.68
2022-08-16T00:57:58.265Z,73.98
2022-08-16T00:58:34.768Z,73.48
2022-08-16T00:59:28.151Z,73.98
2022-08-16T01:00:27.473Z,73.68
2022-08-16T01:01:27.463Z,73.88
2022-08-16T01:02:31.169Z,73.98
2022-08-16T01:03:30.268Z,73.68
2022-08-16T01:04:30.046Z,74.08
2022-08-16T01:05:28.147Z,74.08
2022-08-16T01:06:32.589Z,74.18
2022-08-16T01:07:29.505Z,73.48
2022-08-16T01:08:35.876Z,73.48
2022-08-16T01:09:33.777Z,73.98
2022-08-16T01:10:31.646Z,73.18
2022-08-16T01:11:29.374Z,73.18
2022-08-16T01:12:29.463Z,73.38
2022-08-16T01:13:29.578Z,73.38
2022-08-16T01:14:30.232Z,73.38
2022-08-16T01:15:30.166Z,73.28
2022-08-16T01:16:30.119Z,73.78
2022-08-16T01:17:30.271Z,73.58
2022-08-16T01:18:40.761Z,73.38
2022-08-16T01:19:31.656Z,73.32
2022-08-16T01:20:30.809Z,73.32
2022-08-16T01:21:33.868Z,73.42
2022-08-16T01:22:50.256Z,73.52
2022-08-16T01:23:58.370Z,74.02
2022-08-16T01:24:52.437Z,73.72
2022-08-16T01:25:34.370Z,73.52
2022-08-16T01:26:34.757Z,73.61
2022-08-16T01:27:34.443Z,74.41
2022-08-16T01:28:34.684Z,73.91
2022-08-16T01:29:35.707Z,73.91
2022-08-16T01:30:33.559Z,73.82
2022-08-16T01:31:32.741Z,74.62
2022-08-16T01:32:34.468Z,74.41
2022-08-16T01:33:33.120Z,74.41
2022-08-16T01:34:33.363Z,74.71
2022-08-16T01:35:35.362Z,74.62
2022-08-16T01:36:33.604Z,74.51
2022-08-16T01:37:35.582Z,74.62
2022-08-16T01:38:33.953Z,74.21
2022-08-16T01:39:35.397Z,74.11
2022-08-16T01:40:34.311Z,74.62
2022-08-16T01:41:34.516Z,75.15
2022-08-16T01:42:35.652Z,75.05
2022-08-16T01:43:34.832Z,74.95
2022-08-16T01:44:37.810Z,75.25
2022-08-16T01:45:40.425Z,74.45
2022-08-16T01:46:39.251Z,75.05
2022-08-16T01:47:35.615Z,75.35
2022-08-16T01:48:35.733Z,75.55
2022-08-16T01:49:35.996Z,75.35
2022-08-16T01:50:41.821Z,75.18
2022-08-16T01:51:39.184Z,74.88
2022-08-16T01:52:36.383Z,74.88
2022-08-16T01:53:36.677Z,74.38
2022-08-16T01:54:37.549Z,74.49
2022-08-16T01:55:36.913Z,74.49
2022-08-16T01:56:37.138Z,75.28
2022-08-16T01:57:37.307Z,74.68
2022-08-16T01:58:37.444Z,74.79
2022-08-16T01:59:37.613Z,74.88
2022-08-16T02:00:37.819Z,74.88
2022-08-16T02:01:38.124Z,75.09
2022-08-16T02:02:42.533Z,74.68
2022-08-16T02:03:40.099Z,75.09
2022-08-16T02:04:48.651Z,74.58
2022-08-16T02:05:39.615Z,74.29
2022-08-16T02:06:39.866Z,74.49
2022-08-16T02:07:39.943Z,75.38
2022-08-16T02:08:39.134Z,75.18
2022-08-16T02:09:39.397Z,74.58
2022-08-16T02:10:39.475Z,74.88
2022-08-16T02:11:48.643Z,75.18
2022-08-16T02:12:51.906Z,75.98
2022-08-16T02:13:41.895Z,76.18
2022-08-16T02:14:40.133Z,75.78
2022-08-16T02:15:43.950Z,74.98
2022-08-16T02:16:40.539Z,74.88
2022-08-16T02:17:40.675Z,74.88
2022-08-16T02:18:40.855Z,75.18
2022-08-16T02:20:00.302Z,74.68
2022-08-16T02:20:42.586Z,74.68
2022-08-16T02:22:08.976Z,74.58
2022-08-16T02:22:42.650Z,74.88
2022-08-16T02:23:41.735Z,74.88
2022-08-16T02:24:42.329Z,75.38
2022-08-16T02:25:52.136Z,75.18
2022-08-16T02:26:43.250Z,74.68
2022-08-16T02:27:42.433Z,74.58
2022-08-16T02:28:45.292Z,74.98
2022-08-16T02:29:42.814Z,75.48
2022-08-16T02:30:45.078Z,74.68
2022-08-16T02:32:03.471Z,74.58
2022-08-16T02:32:51.149Z,74.58
2022-08-16T02:33:49.113Z,74.68
2022-08-16T02:34:44.720Z,74.98
2022-08-16T02:35:54.063Z,74.58
2022-08-16T02:36:50.711Z,74.58
2022-08-16T02:37:52.369Z,74.49
2022-08-16T02:38:45.490Z,75.28
2022-08-16T02:39:44.641Z,75.18
2022-08-16T02:40:44.746Z,74.79
2022-08-16T02:41:44.979Z,74.49
2022-08-16T02:42:49.731Z,74.58
2022-08-16T02:43:45.238Z,74.98
2022-08-16T02:44:45.489Z,75.18
2022-08-16T02:45:45.589Z,74.68
2022-08-16T02:46:49.882Z,75.38
2022-08-16T02:48:01.560Z,75.59
2022-08-16T02:48:47.468Z,75.82
2022-08-16T02:49:59.202Z,75.22
2022-08-16T02:51:06.436Z,74.82
2022-08-16T02:51:47.676Z,75.12
2022-08-16T02:52:46.999Z,75.22
2022-08-16T02:53:47.037Z,74.82
2022-08-16T02:54:47.253Z,75.42
2022-08-16T02:55:50.461Z,75.12
2022-08-16T02:56:47.807Z,75.32
2022-08-16T02:57:53.960Z,75.22
2022-08-16T02:58:48.862Z,75.12
2022-08-16T02:59:48.066Z,75.62
2022-08-16T03:00:50.026Z,75.12
2022-08-16T03:01:49.594Z,75.32
2022-08-16T03:02:56.192Z,75.12
2022-08-16T03:04:39.955Z,74.92
2022-08-16T03:04:52.665Z,75.32
2022-08-16T03:05:49.150Z,75.42
2022-08-16T03:06:49.228Z,75.42
2022-08-16T03:07:50.804Z,74.82
2022-08-16T03:08:52.349Z,74.82
2022-08-16T03:09:49.753Z,75.22
2022-08-16T03:10:49.913Z,74.62
2022-08-16T03:11:50.079Z,75.12
2022-08-16T03:12:55.882Z,74.72
2022-08-16T03:13:51.599Z,75.42
2022-08-16T03:14:50.600Z,74.92
2022-08-16T03:15:50.792Z,75.02
2022-08-16T03:16:59.227Z,75.42
2022-08-16T03:17:53.332Z,75.32
2022-08-16T03:18:51.315Z,75.62
2022-08-16T03:19:59.791Z,75.82
2022-08-16T03:20:55.894Z,75.72
2022-08-16T03:21:51.953Z,75.65
2022-08-16T03:22:51.940Z,75.76
2022-08-16T03:23:52.101Z,75.26
2022-08-16T03:24:52.363Z,75.26
2022-08-16T03:25:52.447Z,75.05
2022-08-16T03:26:52.601Z,75.35
2022-08-16T03:27:52.886Z,76.06
2022-08-16T03:28:52.960Z,75.96
2022-08-16T03:29:54.662Z,75.76
2022-08-16T03:30:53.342Z,75.65
2022-08-16T03:31:53.461Z,75.96
2022-08-16T03:32:53.751Z,76.35
2022-08-16T03:33:53.802Z,75.96
2022-08-16T03:34:53.997Z,75.56
2022-08-16T03:35:57.159Z,75.85
2022-08-16T03:36:54.291Z,75.76
2022-08-16T03:38:03.052Z,75.46
2022-08-16T03:38:55.651Z,75.46
2022-08-16T03:39:56.546Z,75.65
2022-08-16T03:40:55.981Z,75.46
2022-08-16T03:41:59.587Z,75.46
2022-08-16T03:43:19.135Z,75.46
2022-08-16T03:43:56.501Z,75.05
2022-08-16T03:45:03.529Z,75.05
2022-08-16T03:45:56.924Z,75.35
2022-08-16T03:46:56.024Z,75.85
2022-08-16T03:47:59.713Z,76.35
2022-08-16T03:48:56.453Z,75.56
2022-08-16T03:49:56.560Z,75.46
2022-08-16T03:50:59.918Z,75.26
2022-08-16T03:51:56.946Z,76.45
2022-08-16T03:53:04.158Z,76.65
2022-08-16T03:54:01.313Z,75.96
2022-08-16T03:54:59.277Z,75.76
2022-08-16T03:55:57.613Z,75.76
2022-08-16T03:56:58.787Z,75.65
2022-08-16T03:57:57.985Z,75.96
2022-08-16T03:58:58.178Z,75.96
2022-08-16T03:59:58.386Z,75.65
2022-08-16T04:00:59.389Z,76.06
2022-08-16T04:01:58.703Z,75.65
2022-08-16T04:02:58.946Z,75.96
2022-08-16T04:03:59.055Z,75.56
2022-08-16T04:04:59.243Z,75.35
2022-08-16T04:05:59.476Z,75.76
2022-08-16T04:06:59.593Z,76.06
2022-08-16T04:07:59.753Z,75.35
2022-08-16T04:09:00.026Z,75.35
2022-08-16T04:10:00.127Z,75.76
2022-08-16T04:11:01.302Z,75.05
2022-08-16T04:12:00.571Z,75.52
2022-08-16T04:13:04.628Z,75.82
2022-08-16T04:14:30.842Z,75.32
2022-08-16T04:15:02.209Z,74.92
2022-08-16T04:16:01.205Z,75.22
2022-08-16T04:17:01.707Z,75.62
2022-08-16T04:18:01.548Z,75.12
2022-08-16T04:19:04.084Z,75.32
2022-08-16T04:20:01.875Z,75.12
2022-08-16T04:21:02.065Z,75.42
2022-08-16T04:22:02.336Z,75.12
2022-08-16T04:23:03.428Z,75.12
2022-08-16T04:24:02.843Z,74.79
2022-08-16T04:25:02.867Z,74.68
2022-08-16T04:26:02.956Z,74.49
2022-08-16T04:27:03.157Z,74.29
2022-08-16T04:28:54.593Z,74.49
2022-08-16T04:29:16.334Z,74.38
2022-08-16T04:30:04.676Z,74.38
2022-08-16T04:31:07.363Z,74.98
2022-08-16T04:32:05.080Z,74.68
2022-08-16T04:33:04.480Z,74.55
2022-08-16T04:34:04.418Z,74.45
2022-08-16T04:35:08.391Z,74.45
2022-08-16T04:36:05.740Z,73.95
2022-08-16T04:37:05.217Z,74.25
2022-08-16T04:38:09.509Z,74.25
2022-08-16T04:39:06.248Z,74.25
2022-08-16T04:40:05.727Z,74.35
2022-08-16T04:41:05.670Z,74.35
2022-08-16T04:42:11.206Z,74.15
2022-08-16T04:43:06.924Z,74.25
2022-08-16T04:44:32.756Z,74.05
2022-08-16T04:45:07.261Z,73.95
2022-08-16T04:46:06.429Z,73.72
2022-08-16T04:47:24.005Z,73.42
2022-08-16T04:48:07.774Z,73.02
2022-08-16T04:49:06.925Z,72.81
2022-08-16T04:50:07.861Z,72.68
2022-08-16T04:51:07.811Z,72.58
2022-08-16T04:52:07.476Z,72.68
2022-08-16T04:53:08.648Z,72.88
2022-08-16T04:54:07.921Z,72.78
2022-08-16T04:55:08.000Z,72.58
2022-08-16T04:56:11.383Z,72.49
2022-08-16T04:57:08.447Z,72.35
2022-08-16T04:58:44.159Z,71.95
2022-08-16T04:59:09.698Z,71.75
2022-08-16T05:00:30.446Z,71.65
2022-08-16T05:01:10.029Z,71.65
2022-08-16T05:02:41.008Z,71.65
2022-08-16T05:03:10.572Z,71.55
2022-08-16T05:04:09.575Z,71.35
2022-08-16T05:05:17.218Z,71.45
2022-08-16T05:06:10.997Z,71.75
2022-08-16T05:07:14.893Z,71.55
2022-08-16T05:08:29.216Z,71.65
2022-08-16T05:09:11.495Z,71.51
2022-08-16T05:10:19.869Z,71.62
2022-08-16T05:11:11.787Z,71.51
2022-08-16T05:12:11.285Z,71.42
2022-08-16T05:13:15.511Z,71.22
2022-08-16T05:14:11.331Z,70.92
2022-08-16T05:15:12.509Z,70.68
2022-08-16T05:16:16.600Z,70.19
2022-08-16T05:17:12.841Z,70.09
2022-08-16T05:18:15.967Z,70.39
2022-08-16T05:19:13.265Z,70.09
2022-08-16T05:20:35.254Z,70.19
2022-08-16T05:21:13.501Z,70.29
2022-08-16T05:22:18.306Z,70.06
2022-08-16T05:23:15.039Z,69.76
2022-08-16T05:24:13.021Z,69.66
2022-08-16T05:25:13.274Z,69.32
2022-08-16T05:26:20.196Z,69.13
2022-08-16T05:27:14.562Z,68.30
2022-08-16T05:28:13.799Z,68.27
2022-08-16T05:29:14.657Z,66.31
2022-08-16T05:30:35.803Z,65.99
2022-08-16T05:31:15.253Z,64.76
2022-08-16T05:32:32.883Z,64.73
2022-08-16T05:33:16.363Z,64.31
2022-08-16T05:34:19.741Z,61.99
2022-08-16T05:35:16.048Z,61.24
2022-08-16T05:36:15.131Z,61.34
2022-08-16T05:37:16.302Z,61.31
2022-08-16T05:38:33.080Z,59.97
2022-08-16T05:39:16.651Z,59.74
2022-08-16T05:40:15.860Z,58.73
2022-08-16T05:41:16.914Z,57.42
2022-08-16T05:42:16.176Z,58.28
2022-08-16T05:43:16.314Z,56.67
2022-08-16T05:44:24.249Z,56.74
2022-08-16T05:45:22.003Z,56.94
2022-08-16T05:46:28.909Z,55.14
2022-08-16T05:47:18.077Z,54.33
2022-08-16T05:48:17.235Z,54.69
2022-08-16T05:49:22.626Z,54.76
2022-08-16T05:50:18.963Z,53.27
2022-08-16T05:51:38.923Z,53.23
2022-08-16T05:52:20.697Z,52.72
2022-08-16T05:53:18.046Z,52.23
2022-08-16T05:54:24.679Z,51.25
2022-08-16T05:55:19.386Z,50.98
2022-08-16T05:56:19.440Z,52.15
2022-08-16T05:57:18.869Z,52.08
2022-08-16T05:58:31.987Z,52.60
2022-08-16T05:59:22.112Z,53.19
2022-08-16T06:00:22.354Z,53.51
2022-08-16T06:01:19.503Z,53.22
2022-08-16T06:02:19.647Z,53.24
2022-08-16T06:03:19.900Z,53.74
2022-08-16T06:04:34.840Z,53.86
2022-08-16T06:05:21.159Z,53.76
2022-08-16T06:06:28.176Z,54.38
2022-08-16T06:07:25.061Z,55.26
2022-08-16T06:08:31.825Z,55.49
2022-08-16T06:09:21.909Z,55.58
2022-08-16T06:10:32.062Z,55.19
2022-08-16T06:11:22.262Z,55.51
2022-08-16T06:12:26.961Z,56.30
2022-08-16T06:13:22.629Z,56.30
2022-08-16T06:14:21.800Z,56.43
2022-08-16T06:15:21.955Z,56.73
2022-08-16T06:16:22.205Z,56.43
2022-08-16T06:17:22.310Z,56.73
2022-08-16T06:18:22.481Z,57.32
2022-08-16T06:19:23.782Z,57.12
2022-08-16T06:20:23.766Z,57.15
2022-08-16T06:21:23.877Z,56.65
2022-08-16T06:22:39.034Z,56.65
2022-08-16T06:23:24.653Z,57.37
2022-08-16T06:24:53.327Z,57.34
2022-08-16T06:25:35.398Z,56.46
2022-08-16T06:26:24.881Z,56.63
2022-08-16T06:27:25.024Z,56.23
2022-08-16T06:28:36.627Z,55.91
2022-08-16T06:29:25.395Z,55.58
2022-08-16T06:30:24.513Z,54.77
2022-08-16T06:31:25.176Z,54.47
2022-08-16T06:32:27.771Z,53.27
2022-08-16T06:33:25.025Z,52.65
2022-08-16T06:34:55.062Z,52.65
2022-08-16T06:35:26.438Z,52.26
2022-08-16T06:36:26.707Z,52.62
2022-08-16T06:37:25.685Z,51.84
2022-08-16T06:38:33.739Z,51.93
2022-08-16T06:39:27.053Z,51.25
2022-08-16T06:40:33.702Z,51.25
2022-08-16T06:41:27.783Z,51.62
2022-08-16T06:42:26.569Z,50.81
2022-08-16T06:43:27.578Z,50.19
2022-08-16T06:44:27.109Z,50.16
2022-08-16T06:45:29.112Z,50.16
2022-08-16T06:46:31.658Z,49.58
2022-08-16T06:47:52.462Z,49.68
2022-08-16T06:48:32.852Z,49.77
2022-08-16T06:49:28.776Z,49.48
2022-08-16T06:50:29.681Z,49.48
2022-08-16T06:51:45.703Z,49.48
2022-08-16T06:53:08.608Z,48.57
2022-08-16T06:53:29.813Z,48.16
2022-08-16T06:54:28.745Z,47.33
2022-08-16T06:55:33.749Z,46.72
2022-08-16T06:56:30.031Z,46.42
2022-08-16T06:57:29.287Z,46.30
2022-08-16T06:58:31.884Z,46.28
2022-08-16T06:59:29.529Z,45.67
2022-08-16T07:00:30.777Z,45.28
2022-08-16T07:01:46.102Z,45.36
2022-08-16T07:02:33.369Z,45.16
2022-08-16T07:03:32.397Z,44.87
2022-08-16T07:04:32.933Z,44.96
2022-08-16T07:05:42.016Z,45.45
2022-08-16T07:06:31.773Z,45.26
2022-08-16T07:07:34.580Z,44.98
2022-08-16T07:08:32.128Z,44.87
2022-08-16T07:09:31.271Z,44.65
2022-08-16T07:10:31.492Z,44.43
2022-08-16T07:11:47.839Z,43.73
2022-08-16T07:12:47.627Z,43.51
2022-08-16T07:14:22.808Z,42.83
2022-08-16T07:14:33.156Z,43.32
2022-08-16T07:15:32.312Z,43.63
2022-08-16T07:16:32.526Z,43.71
2022-08-16T07:17:32.682Z,43.22
2022-08-16T07:18:32.843Z,43.19
2022-08-16T07:19:33.663Z,42.32
2022-08-16T07:20:36.123Z,42.49
2022-08-16T07:21:46.613Z,41.99
2022-08-16T07:22:37.134Z,41.36
2022-08-16T07:23:37.219Z,41.14
2022-08-16T07:24:34.863Z,40.44
2022-08-16T07:25:35.043Z,40.31
2022-08-16T07:26:35.260Z,39.80
2022-08-16T07:27:37.228Z,38.91
2022-08-16T07:28:34.545Z,38.02
2022-08-16T07:29:34.784Z,37.51
2022-08-16T07:30:39.907Z,37.59
2022-08-16T07:31:37.835Z,37.30
2022-08-16T07:32:35.365Z,36.60
2022-08-16T07:33:51.345Z,36.78
2022-08-16T07:34:48.189Z,36.47
2022-08-16T07:35:36.787Z,36.36
2022-08-16T07:36:36.955Z,35.66
2022-08-16T07:37:36.229Z,35.18
2022-08-16T07:38:36.298Z,35.45
2022-08-16T07:39:43.221Z,34.76
2022-08-16T07:40:59.398Z,34.74
2022-08-16T07:41:37.813Z,34.06
2022-08-16T07:42:37.007Z,34.34
2022-08-16T07:43:40.594Z,33.86
2022-08-16T07:44:49.023Z,33.94
2022-08-16T07:45:38.549Z,33.65
2022-08-16T07:46:40.163Z,33.44
2022-08-16T07:47:38.985Z,32.65
2022-08-16T07:48:38.090Z,32.46
2022-08-16T07:49:38.249Z,32.64
2022-08-16T07:50:55.673Z,32.52
2022-08-16T07:51:39.610Z,32.23
2022-08-16T07:52:39.165Z,31.35
2022-08-16T07:53:43.872Z,31.54
2022-08-16T07:54:40.122Z,31.64
2022-08-16T07:55:47.881Z,31.72
2022-08-16T07:56:40.525Z,31.16
2022-08-16T07:57:55.808Z,31.27
2022-08-16T07:58:40.828Z,31.85
2022-08-16T07:59:45.710Z,32.04
2022-08-16T08:00:41.199Z,32.14
2022-08-16T08:01:41.352Z,31.75
2022-08-16T08:02:40.679Z,31.54
2022-08-16T08:03:43.660Z,31.24
2022-08-16T08:04:41.883Z,31.43
2022-08-16T08:05:41.138Z,31.24
2022-08-16T08:06:41.292Z,31.15
2022-08-16T08:07:45.270Z,30.93
2022-08-16T08:08:50.643Z,30.84
2022-08-16T08:09:43.201Z,30.25
2022-08-16T08:10:41.937Z,30.17
2022-08-16T08:12:00.659Z,30.26
2022-08-16T08:12:43.850Z,30.55
2022-08-16T08:13:43.071Z,30.44
2022-08-16T08:14:42.617Z,30.33
2022-08-16T08:15:52.889Z,29.85
2022-08-16T08:16:45.214Z,29.85
2022-08-16T08:17:44.075Z,30.02
2022-08-16T08:18:43.438Z,29.44
2022-08-16T08:19:44.501Z,29.53
2022-08-16T08:20:44.658Z,30.20
2022-08-16T08:21:59.978Z,29.33
2022-08-16T08:22:45.006Z,29.23
2022-08-16T08:23:44.230Z,28.45
2022-08-16T08:24:44.389Z,28.45
2022-08-16T08:25:55.173Z,28.72
2022-08-16T08:26:49.792Z,28.70
2022-08-16T08:27:44.887Z,28.31
2022-08-16T08:28:45.029Z,28.02
2022-08-16T08:29:45.217Z,27.93
2022-08-16T08:30:52.071Z,28.02
2022-08-16T08:31:46.511Z,27.73
2022-08-16T08:32:59.461Z,28.01
2022-08-16T08:33:51.571Z,27.72
2022-08-16T08:34:46.529Z,27.33
2022-08-16T08:35:46.205Z,27.33
2022-08-16T08:36:46.420Z,27.22
2022-08-16T08:37:55.709Z,27.41
2022-08-16T08:38:47.723Z,26.92
2022-08-16T08:39:55.248Z,26.73
2022-08-16T08:40:48.044Z,26.82
2022-08-16T08:41:49.291Z,26.82
2022-08-16T08:42:47.993Z,26.92
2022-08-16T08:43:50.261Z,27.11
2022-08-16T08:44:47.754Z,26.44
2022-08-16T08:45:52.508Z,26.44
2022-08-16T08:47:00.319Z,26.44
2022-08-16T08:47:54.091Z,26.34
2022-08-16T08:48:58.363Z,26.72
2022-08-16T08:49:55.530Z,26.79
2022-08-16T08:50:50.224Z,25.92
2022-08-16T08:51:48.949Z,26.02
2022-08-16T08:52:49.320Z,25.72
2022-08-16T08:53:57.976Z,25.64
2022-08-16T08:54:50.642Z,25.64
2022-08-16T08:55:49.698Z,25.74
2022-08-16T08:56:50.832Z,26.14
2022-08-16T08:57:50.007Z,26.14
2022-08-16T08:58:54.649Z,25.65
2022-08-16T08:59:51.376Z,26.04
2022-08-16T09:00:51.514Z,25.84
2022-08-16T09:01:56.299Z,25.37
2022-08-16T09:02:52.634Z,25.08
2022-08-16T09:03:51.092Z,25.37
2022-08-16T09:04:51.229Z,25.16
2022-08-16T09:05:51.897Z,25.15
2022-08-16T09:06:51.600Z,24.58
2022-08-16T09:08:00.478Z,24.38
2022-08-16T09:08:52.940Z,24.38
2022-08-16T09:10:06.279Z,24.38
2022-08-16T09:10:58.819Z,24.93
2022-08-16T09:12:06.069Z,24.93
2022-08-16T09:12:53.653Z,23.78
2022-08-16T09:13:52.891Z,23.30
2022-08-16T09:14:52.991Z,23.68
2022-08-16T09:15:53.181Z,23.10
2022-08-16T09:17:01.148Z,23.20
2022-08-16T09:17:54.817Z,23.10
2022-08-16T09:18:54.926Z,23.48
2022-08-16T09:19:57.090Z,23.75
2022-08-16T09:20:58.340Z,22.60
2022-08-16T09:21:56.242Z,22.12
2022-08-16T09:22:54.705Z,21.82
2022-08-16T09:23:54.589Z,21.35
2022-08-16T09:24:58.177Z,21.44
2022-08-16T09:25:55.966Z,21.63
2022-08-16T09:26:55.091Z,22.01
2022-08-16T09:27:56.704Z,21.81
2022-08-16T09:29:16.279Z,21.72
2022-08-16T09:30:00.054Z,22.09
2022-08-16T09:30:55.755Z,21.51
2022-08-16T09:31:55.955Z,21.42
2022-08-16T09:32:56.211Z,21.33
2022-08-16T09:33:56.306Z,21.70
2022-08-16T09:34:58.117Z,21.60
2022-08-16T09:35:56.725Z,21.12
2022-08-16T09:36:56.828Z,21.21
2022-08-16T09:38:00.980Z,21.21
2022-08-16T09:38:59.921Z,21.78
2022-08-16T09:39:57.416Z,21.78
2022-08-16T09:40:57.581Z,21.30
2022-08-16T09:41:57.796Z,21.01
2022-08-16T09:42:58.977Z,21.20
2022-08-16T09:44:02.205Z,21.00
2022-08-16T09:45:10.748Z,20.43
2022-08-16T09:45:59.467Z,20.80
2022-08-16T09:46:58.636Z,20.51
2022-08-16T09:47:58.958Z,20.32
2022-08-16T09:48:59.061Z,19.95
2022-08-16T09:49:59.169Z,20.23
2022-08-16T09:50:59.329Z,20.15
2022-08-16T09:51:59.569Z,19.96
2022-08-16T09:52:59.717Z,20.06
2022-08-16T09:53:59.849Z,20.35
2022-08-16T09:55:00.150Z,20.44
2022-08-16T09:56:00.258Z,20.25
2022-08-16T09:57:00.370Z,20.06
2022-08-16T09:58:00.581Z,19.68
2022-08-16T09:59:05.229Z,19.87
2022-08-16T10:00:01.908Z,20.15
2022-08-16T10:01:01.141Z,19.97
2022-08-16T10:02:25.966Z,20.35
2022-08-16T10:03:02.478Z,20.35
2022-08-16T10:04:04.554Z,20.25
2022-08-16T10:05:01.945Z,20.45
2022-08-16T10:06:01.931Z,20.73
2022-08-16T10:07:02.592Z,20.73
2022-08-16T10:08:25.433Z,20.26
2022-08-16T10:09:05.982Z,20.37
2022-08-16T10:10:02.633Z,20.19
2022-08-16T10:11:02.906Z,21.25
2022-08-16T10:12:11.323Z,21.28
2022-08-16T10:13:04.253Z,21.69
2022-08-16T10:14:03.711Z,22.38
2022-08-16T10:15:03.729Z,23.64
2022-08-16T10:16:03.815Z,24.14
2022-08-16T10:17:03.917Z,23.86
2022-08-16T10:19:00.428Z,23.97
2022-08-16T10:19:07.060Z,24.08
2022-08-16T10:20:04.395Z,24.68
2022-08-16T10:21:04.620Z,24.88
2022-08-16T10:22:05.607Z,25.10
2022-08-16T10:23:07.089Z,25.70
2022-08-16T10:24:05.173Z,26.48
2022-08-16T10:25:05.257Z,26.12
2022-08-16T10:27:16.547Z,27.00
2022-08-16T10:27:21.663Z,27.49
2022-08-16T10:28:27.557Z,27.40
2022-08-16T10:29:06.947Z,27.42
2022-08-16T10:30:06.894Z,27.82
2022-08-16T10:31:07.321Z,27.74
2022-08-16T10:32:06.480Z,28.72
2022-08-16T10:33:06.658Z,29.50
2022-08-16T10:34:24.066Z,29.32
2022-08-16T10:35:08.009Z,28.64
2022-08-16T10:36:07.587Z,28.37
2022-08-16T10:37:07.390Z,28.39
2022-08-16T10:38:09.654Z,29.08
2022-08-16T10:39:08.804Z,28.30
2022-08-16T10:40:29.287Z,29.28
2022-08-16T10:41:09.071Z,30.15
2022-08-16T10:42:08.205Z,29.49
2022-08-16T10:43:08.491Z,30.07
2022-08-16T10:44:09.767Z,30.36
2022-08-16T10:45:08.721Z,29.78
2022-08-16T10:46:33.840Z,29.90
2022-08-16T10:47:10.104Z,29.80
2022-08-16T10:48:27.112Z,30.39
2022-08-16T10:49:10.414Z,30.88
2022-08-16T10:50:19.742Z,31.36
2022-08-16T10:51:10.785Z,31.67
2022-08-16T10:52:18.183Z,31.18
2022-08-16T10:53:11.185Z,30.89
2022-08-16T10:54:28.607Z,31.20
2022-08-16T10:56:49.472Z,30.92
2022-08-16T10:57:12.134Z,30.54
2022-08-16T10:58:11.865Z,31.31
2022-08-16T11:00:21.026Z,31.71
2022-08-16T11:01:43.542Z,31.71
2022-08-16T11:02:58.321Z,32.39
2022-08-16T11:03:44.651Z,31.15
2022-08-16T11:05:05.394Z,32.12
2022-08-16T11:05:14.162Z,31.82
2022-08-16T11:06:12.569Z,31.74
2022-08-16T11:08:13.767Z,32.04
2022-08-16T11:09:29.157Z,31.94
2022-08-16T11:11:05.234Z,32.04
2022-08-16T11:11:19.423Z,32.32
2022-08-16T11:12:15.022Z,32.04
2022-08-16T11:13:57.320Z,32.23
2022-08-16T11:14:14.798Z,32.13
2022-08-16T11:15:16.834Z,32.44
2022-08-16T11:17:15.320Z,32.73
2022-08-16T11:19:03.588Z,32.54
2022-08-16T11:19:16.005Z,31.85
2022-08-16T11:21:28.461Z,31.27
2022-08-16T11:22:38.897Z,31.08
2022-08-16T11:23:16.399Z,31.85
2022-08-16T11:24:41.794Z,31.37
2022-08-16T11:26:06.476Z,31.19
2022-08-16T11:26:23.844Z,31.87
2022-08-16T11:27:19.501Z,31.48
2022-08-16T11:29:12.297Z,31.87
2022-08-16T11:29:17.432Z,32.17
2022-08-16T11:30:20.014Z,31.77
2022-08-16T11:31:17.861Z,32.35
2022-08-16T11:32:20.101Z,32.65
2022-08-16T11:33:18.267Z,32.82
2022-08-16T11:34:19.734Z,32.15
2022-08-16T11:35:17.872Z,31.85
2022-08-16T11:36:27.793Z,31.37
2022-08-16T11:37:27.429Z,30.88
2022-08-16T11:38:46.916Z,31.74
2022-08-16T11:39:19.164Z,31.45
2022-08-16T11:40:18.375Z,31.07
2022-08-16T11:41:18.565Z,31.15
2022-08-16T11:42:28.129Z,31.34
2022-08-16T11:43:19.865Z,31.32
2022-08-16T11:44:20.431Z,31.13
2022-08-16T11:45:20.236Z,31.13
2022-08-16T11:46:45.410Z,31.50
2022-08-16T11:47:20.694Z,31.41
2022-08-16T11:48:19.763Z,31.60
2022-08-16T11:49:19.946Z,31.31
2022-08-16T11:50:20.207Z,31.21
2022-08-16T11:51:20.299Z,30.34
2022-08-16T11:52:21.631Z,30.73
2022-08-16T11:53:20.746Z,30.82
2022-08-16T11:54:22.879Z,30.44
2022-08-16T11:55:23.507Z,30.34
2022-08-16T11:56:29.872Z,30.07
2022-08-16T11:57:22.448Z,30.55
2022-08-16T11:58:21.542Z,31.50
2022-08-16T11:59:24.428Z,30.63
2022-08-16T12:00:50.740Z,29.66
2022-08-16T12:01:29.676Z,30.16
2022-08-16T12:02:32.618Z,30.27
2022-08-16T12:03:34.956Z,30.37
2022-08-16T12:04:23.672Z,30.18
2022-08-16T12:05:22.738Z,30.76
2022-08-16T12:06:25.158Z,31.62
2022-08-16T12:07:23.651Z,31.52
2022-08-16T12:08:25.976Z,31.71
2022-08-16T12:09:23.411Z,30.94
2022-08-16T12:10:23.589Z,30.63
2022-08-16T12:11:23.740Z,31.21
2022-08-16T12:12:24.015Z,30.44
2022-08-16T12:13:24.101Z,30.63
2022-08-16T12:14:24.292Z,28.89
2022-08-16T12:15:24.483Z,29.85
2022-08-16T12:16:24.651Z,30.15
2022-08-16T12:17:26.332Z,29.76
2022-08-16T12:18:25.032Z,29.66
2022-08-16T12:19:34.027Z,29.95
2022-08-16T12:20:27.640Z,29.37
2022-08-16T12:21:25.564Z,28.69
2022-08-16T12:22:26.774Z,29.10
2022-08-16T12:23:25.925Z,29.38
2022-08-16T12:24:26.103Z,30.07
2022-08-16T12:25:26.284Z,30.26
2022-08-16T12:26:26.477Z,30.74
2022-08-16T12:27:26.703Z,30.07
2022-08-16T12:28:44.777Z,30.16
2022-08-16T12:29:29.217Z,31.12
2022-08-16T12:30:33.536Z,29.95
2022-08-16T12:31:28.346Z,29.85
2022-08-16T12:32:39.592Z,29.95
2022-08-16T12:33:28.719Z,29.37
2022-08-16T12:34:28.927Z,29.37
2022-08-16T12:35:28.296Z,28.59
2022-08-16T12:36:29.732Z,28.79
2022-08-16T12:37:28.452Z,28.69
2022-08-16T12:38:41.752Z,29.27
2022-08-16T12:39:29.738Z,29.28
2022-08-16T12:40:29.896Z,29.57
2022-08-16T12:41:29.122Z,29.87
2022-08-16T12:42:34.289Z,29.97
2022-08-16T12:43:31.234Z,29.77
2022-08-16T12:44:31.399Z,30.74
2022-08-16T12:45:29.750Z,30.65
2022-08-16T12:46:31.184Z,30.74
2022-08-16T12:47:30.207Z,30.35
2022-08-16T12:48:33.702Z,30.74
2022-08-16T12:49:30.461Z,30.07
2022-08-16T12:50:33.299Z,29.68
2022-08-16T12:51:34.633Z,29.58
2022-08-16T12:52:33.620Z,29.98
2022-08-16T12:53:31.680Z,30.76
2022-08-16T12:54:31.390Z,30.00
2022-08-16T12:55:33.494Z,30.29
2022-08-16T12:56:32.724Z,30.50
2022-08-16T12:57:36.693Z,31.37
2022-08-16T12:58:49.227Z,31.38
2022-08-16T12:59:33.254Z,31.29